Time;durP1;ratioP1;P1;durP2;ratioP2;P2;SDS_P1;SDS_P2;PMS_P1;PMS_P2;Temp;Humidity;BMP_temperature;BMP_pressure;BME280_temperature;BME280_humidity;BME280_pressure;Samples;Min_cycle;Max_cycle;Signal;HPM_P1;HPM_P2
2023/11/19 00:00:35;;;;;;;14.15;9.23;;;-4.10;91.20;;;;;;5089881;28;20022;-83
2023/11/19 00:03:01;;;;;;;15.00;7.10;;;-4.20;91.30;;;;;;5092098;28;20054;-81
2023/11/19 00:05:27;;;;;;;16.73;8.93;;;-4.30;91.40;;;;;;5115761;28;20241;-82
2023/11/19 00:07:53;;;;;;;16.40;8.05;;;-4.30;91.60;;;;;;5100591;28;20078;-84
2023/11/19 00:10:20;;;;;;;18.33;8.88;;;-4.40;91.60;;;;;;5086250;28;20031;-83
2023/11/19 00:12:48;;;;;;;18.20;9.48;;;-4.50;91.70;;;;;;5072157;28;20036;-82
2023/11/19 00:15:14;;;;;;;15.68;8.10;;;-4.60;91.70;;;;;;5082096;28;20063;-83
2023/11/19 00:17:44;;;;;;;13.40;6.68;;;-4.60;91.80;;;;;;5095579;28;20020;-85
2023/11/19 00:20:14;;;;;;;14.48;8.20;;;-4.70;91.80;;;;;;5105943;28;20366;-85
2023/11/19 00:22:44;;;;;;;15.52;9.43;;;-4.70;91.90;;;;;;5095105;28;20026;-84
2023/11/19 00:25:10;;;;;;;18.63;9.05;;;-4.80;91.90;;;;;;5094249;28;20020;-86
2023/11/19 00:27:39;;;;;;;14.75;8.38;;;-4.80;92.00;;;;;;5092759;28;20028;-86
2023/11/19 00:30:06;;;;;;;14.13;7.45;;;-4.90;92.00;;;;;;5092696;28;20028;-81
2023/11/19 00:32:33;;;;;;;18.38;9.32;;;-4.90;92.10;;;;;;5080164;28;20097;-88
2023/11/19 00:34:58;;;;;;;21.02;9.18;;;-5.00;92.10;;;;;;5081095;28;20090;-86
2023/11/19 00:37:24;;;;;;;12.48;7.82;;;-5.00;92.20;;;;;;5099357;28;20028;-86
2023/11/19 00:39:51;;;;;;;19.63;8.23;;;-5.00;92.30;;;;;;5085050;28;20032;-86
2023/11/19 00:42:17;;;;;;;17.85;9.25;;;-5.10;92.30;;;;;;5097860;28;20044;-85
2023/11/19 00:44:43;;;;;;;11.70;8.13;;;-5.10;92.40;;;;;;5091511;28;20036;-84
2023/11/19 00:47:09;;;;;;;14.18;9.48;;;-5.10;92.50;;;;;;5101984;28;20055;-85
2023/11/19 00:49:35;;;;;;;16.92;8.18;;;-5.20;92.60;;;;;;5094279;28;20099;-85
2023/11/19 00:52:02;;;;;;;22.17;9.13;;;-5.20;92.70;;;;;;5102601;28;20028;-84
2023/11/19 00:54:28;;;;;;;16.42;9.23;;;-5.20;92.70;;;;;;5098509;28;20111;-86
2023/11/19 00:56:54;;;;;;;16.92;9.80;;;-5.10;92.80;;;;;;5093404;28;20059;-85
2023/11/19 00:59:20;;;;;;;18.75;10.02;;;-5.10;92.80;;;;;;5093187;28;20024;-86
2023/11/19 01:01:48;;;;;;;16.98;8.82;;;-5.10;92.80;;;;;;5106907;28;20065;-85
2023/11/19 01:04:14;;;;;;;15.68;8.57;;;-5.10;93.10;;;;;;5074316;28;20557;-85
2023/11/19 01:06:40;;;;;;;15.97;9.17;;;-5.10;92.90;;;;;;5074742;28;20435;-86
2023/11/19 01:09:08;;;;;;;;;;;-5.20;93.00;;;;;;5093458;28;20260;-84
2023/11/19 01:11:34;;;;;;;13.32;8.23;;;-5.20;93.00;;;;;;5094396;28;19904;-85
2023/11/19 01:14:00;;;;;;;20.17;10.48;;;-5.20;92.90;;;;;;5076322;28;20454;-85
2023/11/19 01:16:27;;;;;;;15.20;8.68;;;-5.20;93.00;;;;;;5094980;28;20052;-84
2023/11/19 01:18:53;;;;;;;17.85;9.40;;;-5.30;93.10;;;;;;5094269;28;20108;-84
2023/11/19 01:21:19;;;;;;;19.38;11.07;;;-5.30;93.20;;;;;;5094048;28;20399;-85
2023/11/19 01:23:45;;;;;;;23.75;12.88;;;-5.30;93.20;;;;;;5095486;28;20485;-84
2023/11/19 01:26:13;;;;;;;24.00;11.63;;;-5.30;93.20;;;;;;5093928;28;20400;-84
2023/11/19 01:28:44;;;;;;;26.58;11.10;;;-5.30;93.30;;;;;;5095221;28;20015;-84
2023/11/19 01:31:15;;;;;;;21.95;9.63;;;-5.20;93.30;;;;;;5094036;28;20072;-85
2023/11/19 01:33:41;;;;;;;16.55;10.35;;;-5.20;93.40;;;;;;5095682;28;20431;-84
2023/11/19 01:36:08;;;;;;;15.27;11.00;;;-5.20;93.40;;;;;;5093497;28;20572;-85
2023/11/19 01:38:35;;;;;;;22.17;11.23;;;-5.20;93.50;;;;;;5076763;28;20101;-85
2023/11/19 01:41:03;;;;;;;16.27;9.55;;;-5.20;93.40;;;;;;5093813;28;20031;-84
2023/11/19 01:43:47;;;;;;;26.00;11.48;;;-5.30;93.40;;;;;;5098230;28;20035;-84
2023/11/19 01:46:13;;;;;;;21.52;11.23;;;-5.30;93.50;;;;;;5101182;28;20024;-85
2023/11/19 01:48:46;;;;;;;16.73;10.43;;;-5.40;93.50;;;;;;5106601;28;20022;-83
2023/11/19 01:51:16;;;;;;;24.13;11.68;;;-5.40;93.70;;;;;;5092322;28;20507;-84
2023/11/19 01:53:43;;;;;;;23.30;10.77;;;-5.30;93.70;;;;;;5082539;28;20032;-86
2023/11/19 01:56:11;;;;;;;19.55;10.82;;;-5.30;93.70;;;;;;5101450;28;20077;-84
2023/11/19 01:58:39;;;;;;;20.00;10.45;;;-5.40;93.70;;;;;;5088228;28;20189;-86
2023/11/19 02:01:07;;;;;;;14.43;9.32;;;-5.40;93.70;;;;;;5103168;28;20091;-83
2023/11/19 02:03:33;;;;;;;22.00;10.85;;;-5.40;93.80;;;;;;5119345;28;20038;-85
2023/11/19 02:06:00;;;;;;;20.13;10.70;;;-5.40;93.80;;;;;;5090582;28;20024;-86
2023/11/19 02:08:26;;;;;;;23.08;11.40;;;-5.30;93.90;;;;;;5097631;28;20519;-84
2023/11/19 02:10:54;;;;;;;22.08;11.35;;;-5.30;93.90;;;;;;5120040;28;20038;-84
2023/11/19 02:13:21;;;;;;;16.42;10.95;;;-5.30;93.90;;;;;;5101049;28;20031;-83
2023/11/19 02:15:46;;;;;;;23.27;12.30;;;-5.30;94.00;;;;;;5104268;28;20422;-84
2023/11/19 02:18:23;;;;;;;22.52;11.43;;;-5.30;94.00;;;;;;5116497;28;20032;-84
2023/11/19 02:20:50;;;;;;;17.50;10.77;;;-5.30;94.00;;;;;;5096484;28;20020;-84
2023/11/19 02:23:17;;;;;;;28.13;13.93;;;-5.30;94.00;;;;;;5116962;28;20032;-82
2023/11/19 02:25:47;;;;;;;25.42;12.30;;;-5.30;94.00;;;;;;5104344;28;20012;-85
2023/11/19 02:28:14;;;;;;;21.95;13.55;;;-5.30;94.00;;;;;;5109224;28;20042;-84
2023/11/19 02:30:40;;;;;;;20.60;11.00;;;-5.30;94.00;;;;;;5093265;28;20021;-84
2023/11/19 02:33:05;;;;;;;18.38;10.75;;;-5.30;94.10;;;;;;5109750;28;20034;-83
2023/11/19 02:35:32;;;;;;;16.83;10.05;;;-5.30;94.10;;;;;;5099677;28;20377;-84
2023/11/19 02:38:00;;;;;;;18.08;9.73;;;-5.30;94.10;;;;;;5105000;28;20019;-84
2023/11/19 02:40:26;;;;;;;18.55;10.25;;;-5.30;94.00;;;;;;5122905;28;20018;-82
2023/11/19 02:42:54;;;;;;;27.63;12.63;;;-5.30;94.00;;;;;;5127883;28;20074;-85
2023/11/19 02:45:22;;;;;;;18.15;12.07;;;-5.30;94.00;;;;;;5104837;28;20031;-84
2023/11/19 02:47:48;;;;;;;15.27;9.65;;;-5.30;94.00;;;;;;5083541;28;20457;-84
2023/11/19 02:50:14;;;;;;;22.75;11.93;;;-5.30;94.00;;;;;;5116652;28;20062;-84
2023/11/19 02:52:41;;;;;;;18.30;9.17;;;-5.30;94.00;;;;;;5101810;28;20115;-83
2023/11/19 02:55:14;;;;;;;19.17;10.55;;;-5.20;94.00;;;;;;5100794;28;20023;-84
2023/11/19 02:57:47;;;;;;;18.90;10.43;;;-5.20;94.10;;;;;;5097032;28;20027;-84
2023/11/19 03:00:23;;;;;;;20.50;12.25;;;-5.10;94.00;;;;;;5110455;28;20038;-84
2023/11/19 03:02:59;;;;;;;16.35;9.82;;;-5.00;94.00;;;;;;5107733;28;20016;-84
2023/11/19 03:05:30;;;;;;;21.83;9.95;;;-4.90;93.90;;;;;;5098067;28;20028;-84
2023/11/19 03:07:56;;;;;;;16.35;9.75;;;-4.90;93.90;;;;;;5089941;28;20039;-84
2023/11/19 03:10:22;;;;;;;18.73;9.40;;;-4.80;93.90;;;;;;5090962;28;20023;-86
2023/11/19 03:12:48;;;;;;;17.15;8.88;;;-4.70;93.80;;;;;;5088380;28;20036;-85
2023/11/19 03:15:14;;;;;;;18.23;11.32;;;-4.60;93.70;;;;;;5097546;28;20142;-85
2023/11/19 03:17:41;;;;;;;15.48;10.90;;;-4.60;93.50;;;;;;5095924;28;20036;-87
2023/11/19 03:20:14;;;;;;;18.60;9.98;;;-4.50;93.50;;;;;;5100584;28;20024;-86
2023/11/19 03:22:41;;;;;;;21.60;10.15;;;-4.40;93.40;;;;;;5107414;28;20057;-86
2023/11/19 03:25:08;;;;;;;21.40;10.20;;;-4.40;93.40;;;;;;5115066;28;20030;-84
2023/11/19 03:27:44;;;;;;;18.73;10.60;;;-4.40;93.30;;;;;;5115676;28;20265;-87
2023/11/19 03:30:10;;;;;;;16.08;9.10;;;-4.40;93.20;;;;;;5082800;28;20020;-86
2023/11/19 03:32:36;;;;;;;16.92;9.38;;;-4.40;93.10;;;;;;5083533;28;20023;-85
2023/11/19 03:35:09;;;;;;;18.08;9.52;;;-4.40;93.00;;;;;;5129698;28;20024;-87
2023/11/19 03:37:36;;;;;;;15.02;10.43;;;-4.50;93.00;;;;;;5088036;28;20031;-85
2023/11/19 03:40:02;;;;;;;19.85;9.95;;;-4.40;93.00;;;;;;5122749;28;20036;-84
2023/11/19 03:42:30;;;;;;;19.13;9.65;;;-4.50;93.00;;;;;;5132256;28;20079;-85
2023/11/19 03:44:56;;;;;;;16.02;9.60;;;-4.40;92.90;;;;;;5114168;28;20050;-85
2023/11/19 03:47:22;;;;;;;20.08;10.35;;;-4.40;92.90;;;;;;5112424;28;20032;-85
2023/11/19 03:49:49;;;;;;;20.10;9.50;;;-4.40;92.90;;;;;;5120043;28;20031;-85
2023/11/19 03:52:15;;;;;;;14.18;8.90;;;-4.40;92.80;;;;;;5122568;28;20024;-86
2023/11/19 03:54:41;;;;;;;18.05;9.63;;;-4.30;92.70;;;;;;5101870;28;20069;-86
2023/11/19 03:57:07;;;;;;;18.75;9.35;;;-4.30;92.60;;;;;;5115749;28;20027;-86
2023/11/19 03:59:33;;;;;;;12.15;8.75;;;-4.20;92.60;;;;;;5118751;28;20027;-84
2023/11/19 04:02:00;;;;;;;18.40;8.95;;;-4.20;92.50;;;;;;5113608;28;20046;-86
2023/11/19 04:04:27;;;;;;;;;;;-4.20;92.40;;;;;;5114288;28;20455;-85
2023/11/19 04:06:53;;;;;;;13.75;7.28;;;-4.20;92.40;;;;;;5095665;28;19933;-86
2023/11/19 04:09:19;;;;;;;15.65;9.18;;;-4.20;92.20;;;;;;5115351;28;20506;-85
2023/11/19 04:11:47;;;;;;;19.88;9.60;;;-4.20;92.00;;;;;;5128313;28;20134;-83
2023/11/19 04:14:14;;;;;;;21.02;9.93;;;-4.20;92.10;;;;;;5129452;28;20369;-85
2023/11/19 04:16:40;;;;;;;19.33;9.27;;;-4.30;92.10;;;;;;5114452;28;20049;-85
2023/11/19 04:19:06;;;;;;;17.35;9.88;;;-4.30;92.00;;;;;;5106041;28;20032;-84
2023/11/19 04:21:33;;;;;;;17.30;9.88;;;-4.40;92.00;;;;;;5093397;28;20035;-86
2023/11/19 04:23:58;;;;;;;19.55;10.75;;;-4.40;92.10;;;;;;5093062;28;20031;-85
2023/11/19 04:26:24;;;;;;;21.17;10.85;;;-4.40;92.00;;;;;;5083629;28;20040;-85
2023/11/19 04:28:50;;;;;;;20.52;11.05;;;-4.40;92.00;;;;;;5092877;28;20016;-85
2023/11/19 04:31:16;;;;;;;22.02;10.38;;;-4.40;92.20;;;;;;5093077;28;20063;-85
2023/11/19 04:33:43;;;;;;;27.48;11.43;;;-4.40;92.40;;;;;;5108849;28;20023;-85
2023/11/19 04:36:14;;;;;;;20.27;12.02;;;-4.40;92.60;;;;;;5095279;28;20020;-85
2023/11/19 04:38:40;;;;;;;23.83;12.27;;;-4.40;92.70;;;;;;5106525;28;20040;-84
2023/11/19 04:41:06;;;;;;;21.58;13.07;;;-4.30;92.80;;;;;;5118316;28;20017;-86
2023/11/19 04:43:32;;;;;;;19.85;12.63;;;-4.30;93.00;;;;;;5092453;28;20044;-84
2023/11/19 04:45:58;;;;;;;27.45;13.77;;;-4.30;93.20;;;;;;5114274;28;20042;-86
2023/11/19 04:48:24;;;;;;;24.90;13.90;;;-4.30;93.40;;;;;;5117935;28;20048;-85
2023/11/19 04:50:54;;;;;;;26.15;12.93;;;-4.20;93.50;;;;;;5101295;28;20020;-84
2023/11/19 04:53:20;;;;;;;20.65;13.48;;;-4.20;93.50;;;;;;5094431;28;20016;-86
2023/11/19 04:55:45;;;;;;;26.50;12.68;;;-4.20;93.50;;;;;;5075305;28;20028;-84
2023/11/19 04:58:11;;;;;;;20.38;13.52;;;-4.20;93.60;;;;;;5074898;28;20020;-86
2023/11/19 05:00:37;;;;;;;24.77;14.85;;;-4.20;94.00;;;;;;5087490;28;20051;-86
2023/11/19 05:03:03;;;;;;;22.98;14.50;;;-4.20;93.80;;;;;;5112982;28;20024;-86
2023/11/19 05:05:29;;;;;;;27.08;14.20;;;-4.10;93.80;;;;;;5107081;28;20062;-85
2023/11/19 05:07:55;;;;;;;23.30;14.63;;;-4.10;93.80;;;;;;5096798;28;20507;-86
2023/11/19 05:10:21;;;;;;;26.05;14.75;;;-4.00;93.90;;;;;;5094243;28;20019;-86
2023/11/19 05:12:47;;;;;;;27.90;15.40;;;-4.00;93.80;;;;;;5086558;28;20024;-85
2023/11/19 05:15:14;;;;;;;19.90;12.38;;;-4.00;93.80;;;;;;5095858;28;20073;-87
2023/11/19 05:17:40;;;;;;;19.85;14.07;;;-3.90;93.80;;;;;;5077600;28;20020;-85
2023/11/19 05:20:13;;;;;;;19.35;12.60;;;-3.90;93.70;;;;;;5101765;28;20046;-86
2023/11/19 05:22:40;;;;;;;26.38;14.70;;;-3.80;93.70;;;;;;5117280;28;20038;-86
2023/11/19 05:25:07;;;;;;;24.23;14.20;;;-3.80;93.70;;;;;;5118674;28;20019;-87
2023/11/19 05:27:32;;;;;;;27.42;14.45;;;-3.80;93.60;;;;;;5085613;28;20088;-86
2023/11/19 05:29:58;;;;;;;28.38;15.32;;;-3.80;93.60;;;;;;5098453;28;20020;-87
2023/11/19 05:32:24;;;;;;;25.73;13.80;;;-3.70;93.60;;;;;;5115266;28;20023;-85
2023/11/19 05:34:50;;;;;;;24.38;13.32;;;-3.70;93.40;;;;;;5105952;28;20024;-86
2023/11/19 05:37:16;;;;;;;24.15;16.17;;;-3.70;93.20;;;;;;5096107;28;20028;-86
2023/11/19 05:39:42;;;;;;;25.70;18.25;;;-3.80;93.10;;;;;;5087454;28;20448;-85
2023/11/19 05:42:09;;;;;;;27.65;15.52;;;-3.70;93.00;;;;;;5114269;28;20052;-85
2023/11/19 05:44:35;;;;;;;22.20;14.05;;;-3.70;93.00;;;;;;5121244;28;20000;-85
2023/11/19 05:47:01;;;;;;;30.33;15.00;;;-3.70;92.90;;;;;;5079974;28;20136;-86
2023/11/19 05:49:27;;;;;;;21.15;14.88;;;-3.60;93.20;;;;;;5096302;28;20027;-87
2023/11/19 05:51:55;;;;;;;23.55;14.95;;;-3.60;92.80;;;;;;5098035;28;20021;-86
2023/11/19 05:54:21;;;;;;;24.52;14.93;;;-3.60;92.80;;;;;;5101164;28;20474;-86
2023/11/19 05:56:49;;;;;;;35.72;15.73;;;-3.50;92.70;;;;;;5081283;28;20043;-85
2023/11/19 05:59:17;;;;;;;;;;;-3.50;92.60;;;;;;5107478;28;20028;-87
2023/11/19 06:01:43;;;;;;;23.20;12.38;;;-3.50;92.60;;;;;;5127380;28;19908;-87
2023/11/19 06:04:10;;;;;;;21.58;13.88;;;-3.60;92.30;;;;;;5106412;28;20376;-87
2023/11/19 06:06:36;;;;;;;26.98;14.80;;;-3.60;92.30;;;;;;5128371;28;20058;-88
2023/11/19 06:09:03;;;;;;;31.63;14.80;;;-3.60;92.10;;;;;;5131935;28;20028;-85
2023/11/19 06:11:29;;;;;;;32.92;13.63;;;-3.60;92.00;;;;;;5117675;28;20016;-88
2023/11/19 06:13:56;;;;;;;22.67;15.23;;;-3.60;91.90;;;;;;5109148;28;20020;-86
2023/11/19 06:16:22;;;;;;;19.07;12.63;;;-3.60;91.80;;;;;;5108987;28;20024;-88
2023/11/19 06:18:47;;;;;;;24.02;13.02;;;-3.60;91.60;;;;;;5087645;28;20020;-87
2023/11/19 06:21:13;;;;;;;35.53;15.73;;;-3.60;91.60;;;;;;5111024;28;20430;-88
2023/11/19 06:23:40;;;;;;;26.13;13.70;;;-3.60;91.60;;;;;;5111126;28;20023;-87
2023/11/19 06:26:06;;;;;;;23.45;12.75;;;-3.60;91.70;;;;;;5093844;28;20076;-88
2023/11/19 06:28:32;;;;;;;30.95;15.80;;;-3.50;91.70;;;;;;5089530;28;20035;-87
2023/11/19 06:30:58;;;;;;;27.52;14.52;;;-3.50;91.60;;;;;;5104152;28;20024;-86
2023/11/19 06:33:24;;;;;;;25.80;12.98;;;-3.50;91.60;;;;;;5109721;28;20186;-86
2023/11/19 06:35:50;;;;;;;25.30;14.30;;;-3.50;91.50;;;;;;5086551;28;20024;-90
2023/11/19 06:38:16;;;;;;;19.33;13.25;;;-3.70;91.60;;;;;;5108406;28;20043;-88
2023/11/19 06:40:42;;;;;;;21.33;12.35;;;-3.80;91.70;;;;;;5098459;28;20036;-88
2023/11/19 06:43:08;;;;;;;21.35;13.73;;;-3.90;91.90;;;;;;5099570;28;20412;-89
2023/11/19 06:45:36;;;;;;;21.67;14.38;;;-4.10;92.30;;;;;;5111800;28;20502;-89
2023/11/19 06:48:05;;;;;;;23.00;15.18;;;-4.30;92.60;;;;;;5098845;28;20040;-89
2023/11/19 06:50:31;;;;;;;22.20;14.20;;;-4.40;93.10;;;;;;5097722;28;20517;-90
2023/11/19 06:52:57;;;;;;;21.73;14.75;;;-4.30;93.30;;;;;;5083945;28;20020;-88
2023/11/19 06:55:23;;;;;;;29.52;15.07;;;-4.20;93.40;;;;;;5105011;28;20084;-88
2023/11/19 06:57:49;;;;;;;30.45;16.45;;;-4.00;93.30;;;;;;5103595;28;20020;-87
2023/11/19 07:00:16;;;;;;;22.35;14.73;;;-4.00;93.20;;;;;;5107481;28;20052;-87
2023/11/19 07:02:44;;;;;;;29.30;16.90;;;-3.90;93.10;;;;;;5115470;28;20630;-85
2023/11/19 07:05:12;;;;;;;26.77;17.55;;;-4.00;93.10;;;;;;5124848;28;20139;-86
2023/11/19 07:07:37;;;;;;;16.73;11.50;;;-4.00;93.00;;;;;;5118185;28;20028;-88
2023/11/19 07:10:09;;;;;;;24.70;14.88;;;-4.30;93.10;;;;;;5107545;28;20055;-87
2023/11/19 07:12:35;;;;;;;18.83;13.07;;;-4.40;93.30;;;;;;5094866;28;20030;-86
2023/11/19 07:15:03;;;;;;;28.07;15.57;;;-4.40;93.80;;;;;;5096088;28;20024;-88
2023/11/19 07:17:30;;;;;;;22.45;14.55;;;-4.30;93.60;;;;;;5104857;28;20609;-87
2023/11/19 07:19:59;;;;;;;;;;;-4.20;93.90;;;;;;5101658;28;20024;-86
2023/11/19 07:22:25;;;;;;;32.47;16.13;;;-4.20;93.30;;;;;;5095538;28;19916;-86
2023/11/19 07:24:53;;;;;;;26.90;15.45;;;-4.30;93.30;;;;;;5109006;28;20080;-88
2023/11/19 07:27:19;;;;;;;30.75;14.38;;;-4.10;93.50;;;;;;5104879;28;20024;-87
2023/11/19 07:29:46;;;;;;;23.42;13.30;;;-4.00;93.40;;;;;;5082486;28;20031;-81
2023/11/19 07:32:13;;;;;;;19.80;13.63;;;-4.00;93.20;;;;;;5100694;28;20027;-84
2023/11/19 07:34:39;;;;;;;13.70;9.35;;;-4.00;93.00;;;;;;5098880;28;20499;-84
2023/11/19 07:37:05;;;;;;;22.33;12.30;;;-4.00;93.00;;;;;;5093471;28;20030;-84
2023/11/19 07:39:32;;;;;;;18.45;12.13;;;-4.10;93.10;;;;;;5098422;28;20459;-82
2023/11/19 07:41:58;;;;;;;29.35;16.38;;;-4.00;93.20;;;;;;5081368;28;20449;-84
2023/11/19 07:44:24;;;;;;;28.35;14.98;;;-4.00;93.20;;;;;;5102483;28;20028;-79
2023/11/19 07:46:53;;;;;;;19.50;15.00;;;-3.90;93.10;;;;;;5102596;28;20761;-83
2023/11/19 07:49:19;;;;;;;28.70;16.80;;;-3.80;93.20;;;;;;5110576;28;20016;-86
2023/11/19 07:51:45;;;;;;;15.15;10.00;;;-3.70;93.10;;;;;;5078185;28;20374;-87
2023/11/19 07:54:10;;;;;;;15.15;10.25;;;-3.70;92.80;;;;;;5101638;28;20054;-87
2023/11/19 07:56:36;;;;;;;24.95;13.13;;;-3.90;92.40;;;;;;5104280;28;20020;-87
2023/11/19 07:59:03;;;;;;;22.40;12.30;;;-4.00;92.60;;;;;;5110092;28;20381;-87
2023/11/19 08:01:32;;;;;;;24.27;12.88;;;-4.00;92.70;;;;;;5105859;28;20134;-89
2023/11/19 08:03:58;;;;;;;19.48;12.57;;;-3.90;92.80;;;;;;5117657;28;20015;-88
2023/11/19 08:06:24;;;;;;;20.05;10.82;;;-3.90;92.80;;;;;;5102377;28;20087;-88
2023/11/19 08:08:51;;;;;;;16.75;11.23;;;-3.90;92.80;;;;;;5100596;28;20035;-88
2023/11/19 08:11:19;;;;;;;18.40;12.43;;;-3.90;92.80;;;;;;5079209;28;20366;-87
2023/11/19 08:13:45;;;;;;;20.70;12.93;;;-3.70;93.00;;;;;;5078511;28;20056;-88
2023/11/19 08:16:11;;;;;;;25.17;12.32;;;-3.50;92.80;;;;;;5095340;28;20515;-88
2023/11/19 08:18:37;;;;;;;22.75;13.43;;;-3.30;92.60;;;;;;5111001;28;20027;-85
2023/11/19 08:21:04;;;;;;;25.42;13.95;;;-3.40;92.10;;;;;;5105520;28;20359;-85
2023/11/19 08:23:30;;;;;;;24.80;12.32;;;-3.30;92.30;;;;;;5080811;28;20024;-86
2023/11/19 08:25:56;;;;;;;14.98;9.95;;;-3.30;92.00;;;;;;5076532;28;20123;-86
2023/11/19 08:28:22;;;;;;;18.25;10.40;;;-3.40;91.30;;;;;;5077383;28;20542;-87
2023/11/19 08:30:48;;;;;;;18.42;10.93;;;-3.80;91.20;;;;;;5075642;28;20024;-86
2023/11/19 08:33:14;;;;;;;23.70;10.85;;;-4.00;91.50;;;;;;5077693;28;20028;-84
2023/11/19 08:35:41;;;;;;;15.55;11.10;;;-4.10;92.00;;;;;;5086163;28;20490;-81
2023/11/19 08:38:06;;;;;;;29.65;16.95;;;-4.00;92.20;;;;;;5095961;28;20032;-81
2023/11/19 08:40:32;;;;;;;29.90;15.77;;;-4.00;92.20;;;;;;5095324;28;20381;-83
2023/11/19 08:42:58;;;;;;;27.17;15.63;;;-3.90;92.40;;;;;;5102148;28;20063;-82
2023/11/19 08:45:24;;;;;;;29.98;14.50;;;-3.70;92.60;;;;;;5092391;28;20044;-82
2023/11/19 08:47:50;;;;;;;18.25;12.00;;;-3.50;93.00;;;;;;5097184;28;20028;-83
2023/11/19 08:50:16;;;;;;;21.52;12.40;;;-3.30;92.10;;;;;;5114675;28;20047;-83
2023/11/19 08:52:42;;;;;;;17.48;11.27;;;-3.30;91.50;;;;;;5121716;28;20028;-83
2023/11/19 08:55:09;;;;;;;25.58;12.13;;;-3.50;91.00;;;;;;5102185;28;20027;-82
2023/11/19 08:57:35;;;;;;;15.98;9.95;;;-3.60;91.40;;;;;;5079590;28;20032;-82
2023/11/19 09:00:07;;;;;;;21.90;11.85;;;-3.60;91.30;;;;;;5104603;28;20111;-82
2023/11/19 09:02:33;;;;;;;19.95;11.80;;;-3.50;91.30;;;;;;5106500;28;20107;-82
2023/11/19 09:04:59;;;;;;;17.70;11.80;;;-3.50;91.10;;;;;;5095738;28;20066;-82
2023/11/19 09:07:25;;;;;;;21.63;11.50;;;-3.40;91.10;;;;;;5096131;28;20036;-82
2023/11/19 09:09:51;;;;;;;17.13;10.40;;;-3.30;91.30;;;;;;5095309;28;20028;-80
2023/11/19 09:12:17;;;;;;;20.88;11.63;;;-3.20;91.00;;;;;;5101125;28;20099;-83
2023/11/19 09:14:43;;;;;;;18.52;12.18;;;-3.30;90.80;;;;;;5092613;28;20031;-82
2023/11/19 09:17:10;;;;;;;22.90;13.73;;;-3.30;91.00;;;;;;5115809;28;20028;-83
2023/11/19 09:19:36;;;;;;;20.02;11.02;;;-3.30;91.00;;;;;;5096196;28;20617;-83
2023/11/19 09:22:02;;;;;;;19.77;11.52;;;-3.10;91.00;;;;;;5093918;28;20060;-81
2023/11/19 09:24:31;;;;;;;19.25;12.40;;;-3.10;90.70;;;;;;5074272;28;20054;-81
2023/11/19 09:26:57;;;;;;;17.40;10.93;;;-3.10;90.60;;;;;;5092062;28;20039;-86
2023/11/19 09:29:23;;;;;;;15.40;10.07;;;-3.20;90.30;;;;;;5101067;28;20015;-84
2023/11/19 09:31:49;;;;;;;19.90;10.80;;;-3.30;90.40;;;;;;5096984;28;20020;-84
2023/11/19 09:34:15;;;;;;;22.35;12.40;;;-3.50;90.10;;;;;;5083107;28;20027;-85
2023/11/19 09:36:43;;;;;;;14.90;10.20;;;-3.70;90.40;;;;;;5102208;28;20032;-85
2023/11/19 09:39:10;;;;;;;25.42;9.18;;;-3.80;90.40;;;;;;5111786;28;20015;-86
2023/11/19 09:41:36;;;;;;;19.10;11.98;;;-3.80;90.50;;;;;;5112940;28;20043;-85
2023/11/19 09:44:02;;;;;;;15.95;11.63;;;-3.80;90.60;;;;;;5095575;28;20085;-83
2023/11/19 09:46:29;;;;;;;18.48;9.93;;;-3.80;90.70;;;;;;5091937;28;20040;-83
2023/11/19 09:48:57;;;;;;;17.52;11.38;;;-3.80;90.70;;;;;;5105674;28;20027;-83
2023/11/19 09:51:24;;;;;;;18.55;8.77;;;-3.70;90.70;;;;;;5099032;28;20020;-86
2023/11/19 09:53:49;;;;;;;19.52;9.85;;;-3.90;90.20;;;;;;5109641;28;20044;-82
2023/11/19 09:56:18;;;;;;;18.80;11.43;;;-4.20;90.10;;;;;;5105880;28;20062;-83
2023/11/19 09:58:47;;;;;;;18.25;10.38;;;-4.20;90.60;;;;;;5097527;28;20032;-83
2023/11/19 10:01:16;;;;;;;23.80;10.10;;;-4.30;90.60;;;;;;5106805;28;20051;-82
2023/11/19 10:03:43;;;;;;;12.88;9.15;;;-4.30;90.30;;;;;;5105753;28;20389;-81
2023/11/19 10:06:10;;;;;;;20.17;11.50;;;-4.40;90.50;;;;;;5091169;28;20085;-80
2023/11/19 10:08:41;;;;;;;20.35;11.27;;;-4.40;90.50;;;;;;5101031;28;20024;-80
2023/11/19 10:11:07;;;;;;;20.13;11.70;;;-4.40;90.60;;;;;;5074881;28;20036;-83
2023/11/19 10:13:40;;;;;;;21.90;10.63;;;-4.30;90.60;;;;;;5095158;28;20508;-84
2023/11/19 10:16:11;;;;;;;19.77;11.70;;;-4.30;90.40;;;;;;5113664;28;20024;-84
2023/11/19 10:18:38;;;;;;;12.63;9.68;;;-4.40;90.20;;;;;;5105124;28;20019;-83
2023/11/19 10:21:07;;;;;;;12.85;9.75;;;-4.60;90.20;;;;;;5106975;28;20027;-83
2023/11/19 10:23:53;;;;;;;18.15;8.65;;;-4.60;90.40;;;;;;5106620;28;20088;-83
2023/11/19 10:26:20;;;;;;;16.52;10.60;;;-4.60;90.50;;;;;;5096875;28;20092;-82
2023/11/19 10:28:47;;;;;;;22.00;11.20;;;-4.50;90.40;;;;;;5095941;28;20056;-83
2023/11/19 10:31:17;;;;;;;21.10;12.10;;;-4.50;90.50;;;;;;5094666;28;20020;-82
2023/11/19 10:33:47;;;;;;;21.27;12.73;;;-4.30;90.60;;;;;;5079107;28;20027;-81
2023/11/19 10:36:17;;;;;;;18.92;10.60;;;-4.20;90.60;;;;;;5095796;28;20023;-83
2023/11/19 10:38:56;;;;;;;19.65;10.75;;;-4.10;90.50;;;;;;5090711;28;20028;-82
2023/11/19 10:41:32;;;;;;;21.17;11.98;;;-4.00;90.30;;;;;;5095571;28;20110;-82
2023/11/19 10:44:01;;;;;;;23.48;12.55;;;-4.00;90.10;;;;;;5080353;28;20074;-83
2023/11/19 10:46:50;;;;;;;17.65;9.05;;;-3.90;90.20;;;;;;5101744;28;20028;-83
2023/11/19 10:49:22;;;;;;;12.90;9.40;;;-3.90;90.00;;;;;;5096813;28;20480;-83
2023/11/19 10:51:49;;;;;;;14.05;9.10;;;-4.00;89.60;;;;;;5094590;28;20032;-83
2023/11/19 10:54:21;;;;;;;17.33;11.48;;;-4.00;89.70;;;;;;5080360;28;20023;-85
2023/11/19 10:56:54;;;;;;;13.10;9.48;;;-4.10;89.90;;;;;;5115610;28;20024;-87
2023/11/19 10:59:21;;;;;;;18.63;11.15;;;-4.20;88.90;;;;;;5115895;28;20019;-84
2023/11/19 11:01:50;;;;;;;18.10;11.18;;;-4.30;89.30;;;;;;5080373;28;20027;-84
2023/11/19 11:04:23;;;;;;;24.80;10.10;;;-4.30;89.40;;;;;;5110968;28;20028;-84
2023/11/19 11:07:19;;;;;;;18.20;10.27;;;-4.20;89.60;;;;;;5107892;28;20024;-84
2023/11/19 11:09:55;;;;;;;17.45;9.52;;;-4.20;89.80;;;;;;5085920;28;20473;-85
2023/11/19 11:12:41;;;;;;;15.68;9.60;;;-4.30;89.10;;;;;;5101141;28;20043;-85
2023/11/19 11:15:08;;;;;;;14.15;9.57;;;-4.20;89.60;;;;;;5118191;28;20024;-84
2023/11/19 11:17:36;;;;;;;20.73;10.05;;;-4.10;89.80;;;;;;5098631;28;20047;-85
2023/11/19 11:20:02;;;;;;;16.77;9.68;;;-4.10;89.70;;;;;;5100611;28;20063;-84
2023/11/19 11:22:33;;;;;;;19.45;11.45;;;-3.90;89.80;;;;;;5111000;28;20372;-84
2023/11/19 11:25:26;;;;;;;17.05;10.82;;;-3.80;89.50;;;;;;5107168;28;20404;-83
2023/11/19 11:28:07;;;;;;;22.33;10.38;;;-3.70;89.20;;;;;;5107025;28;20031;-86
2023/11/19 11:31:08;;;;;;;24.00;13.18;;;-3.60;88.90;;;;;;5098907;28;20107;-81
2023/11/19 11:34:01;;;;;;;19.17;11.00;;;-3.60;88.40;;;;;;5098147;28;20023;-83
2023/11/19 11:36:31;;;;;;;18.33;10.38;;;-3.60;88.30;;;;;;5103418;28;20102;-83
2023/11/19 11:39:07;;;;;;;26.15;11.65;;;-3.70;87.60;;;;;;5116629;28;20019;-84
2023/11/19 11:41:33;;;;;;;14.90;9.90;;;-3.70;87.70;;;;;;5095323;28;20040;-87
2023/11/19 11:44:02;;;;;;;15.95;10.60;;;-3.70;87.50;;;;;;5104238;28;20472;-84
2023/11/19 11:46:35;;;;;;;21.58;11.35;;;-3.70;86.80;;;;;;5115355;28;20150;-83
2023/11/19 11:49:03;;;;;;;16.50;9.75;;;-3.80;86.90;;;;;;5111757;28;20032;-83
2023/11/19 11:51:48;;;;;;;19.52;8.95;;;-3.70;86.70;;;;;;5127519;28;20023;-82
2023/11/19 11:54:22;;;;;;;18.67;10.40;;;-3.70;86.80;;;;;;5111049;28;20031;-82
2023/11/19 11:57:21;;;;;;;20.05;10.00;;;-3.70;86.70;;;;;;5085832;28;20027;-82
2023/11/19 11:59:49;;;;;;;21.40;9.95;;;-3.70;86.40;;;;;;5071831;28;20096;-83
2023/11/19 12:02:21;;;;;;;20.35;11.07;;;-3.70;86.20;;;;;;5108645;28;20425;-83
2023/11/19 12:04:52;;;;;;;32.45;12.07;;;-3.70;86.20;;;;;;5120955;28;20051;-81
2023/11/19 12:07:21;;;;;;;15.77;9.23;;;-3.70;86.30;;;;;;5106705;28;20028;-82
2023/11/19 12:10:15;;;;;;;15.27;9.48;;;-3.70;86.10;;;;;;5114620;28;20063;-82
2023/11/19 12:12:41;;;;;;;13.77;8.35;;;-3.70;85.80;;;;;;5100866;28;20040;-83
2023/11/19 12:15:11;;;;;;;14.98;8.13;;;-3.80;85.50;;;;;;5096573;28;20074;-83
2023/11/19 12:17:44;;;;;;;17.63;9.13;;;-3.90;86.00;;;;;;5100284;28;20362;-83
2023/11/19 12:20:11;;;;;;;19.27;10.27;;;-3.90;86.10;;;;;;5097245;28;20069;-83
2023/11/19 12:22:40;;;;;;;16.73;10.23;;;-3.80;86.40;;;;;;5104929;28;20024;-83
2023/11/19 12:25:08;;;;;;;21.27;8.77;;;-3.70;86.50;;;;;;5117334;28;20024;-81
2023/11/19 12:27:35;;;;;;;17.08;9.55;;;-3.70;86.10;;;;;;5123051;28;20038;-84
2023/11/19 12:30:04;;;;;;;17.15;9.57;;;-3.80;85.70;;;;;;5107727;28;20080;-84
2023/11/19 12:32:53;;;;;;;12.65;8.45;;;-3.80;86.20;;;;;;5081454;28;20381;-83
2023/11/19 12:35:19;;;;;;;21.67;8.80;;;-3.80;86.50;;;;;;5086457;28;20334;-82